Home > Products > Valid Products > MTR

000
SAUS45 KPUB 312358
MTRSPD
METAR KSPD 312356Z AUTO 01009KT 06/01 A2975 RMK AO1 SLP068 T00560011
10083 20050 55003





000
SAUS45 KPUB 312257
MTRSPD
METAR KSPD 312256Z AUTO 35008KT 07/01 A2975 RMK AO1 SLP066 T00670011





000
SAUS45 KPUB 312157
MTRSPD
METAR KSPD 312156Z AUTO 33006KT 07/01 A2975 RMK AO1 SLP065 T00720011





000
SAUS45 KPUB 312157
MTRSPD
METAR KSPD 312156Z AUTO 33006KT 07/01 A2975 RMK AO1 SLP065 T00720011





000
SAUS45 KPUB 312057
MTRSPD
METAR KSPD 312056Z AUTO 36005KT 07/03 A2977 RMK AO1 SLP070 T00720028
56027





000
SAUS45 KPUB 311957
MTRSPD
METAR KSPD 311956Z AUTO 24005KT 06/02 A2979 RMK AO1 SLP080 T00610017





000
SAUS45 KPUB 311857
MTRSPD
METAR KSPD 311856Z AUTO 24006KT 06/02 A2982 RMK AO1 SLP090 T00560017





000
SAUS45 KPUB 311757
MTRSPD
METAR KSPD 311756Z AUTO 23007KT 05/02 A2986 RMK AO1 SLP105 T00500017
10050 20006 58010





000
SAUS45 KPUB 311657
MTRSPD
METAR KSPD 311656Z AUTO 23009KT 03/01 A2987 RMK AO1 SLP112 T00330011





000
SAUS45 KPUB 311557
MTRSPD
METAR KSPD 311556Z AUTO 22012KT 02/01 A2989 RMK AO1 SLP123 T00170006





000
SAUS45 KPUB 311458
MTRSPD
METAR KSPD 311456Z AUTO 20015KT 01/00 A2989 RMK AO1 SLP125 T00060000
56007





000
SAUS45 KPUB 311357
MTRSPD
METAR KSPD 311356Z AUTO 21009KT 01/00 A2989 RMK AO1 SLP126 T00060000





000
SAUS45 KPUB 311257
MTRSPD
METAR KSPD 311256Z AUTO 21007G16KT 01/00 A2990 RMK AO1 SLP129
T00060000





000
SAUS45 KPUB 311157
MTRSPD
METAR KSPD 311156Z AUTO 21010KT 01/00 A2991 RMK AO1 SLP133 60003
70047 T00060000 10006 20006 56024





000
SAUS45 KPUB 311058
MTRSPD
METAR KSPD 311056Z AUTO 21011KT 01/00 A2994 RMK AO1 SLP141 T00060000





000
SAUS45 KPUB 310957
MTRSPD
METAR KSPD 310956Z AUTO 20015G22KT 01/00 A2996 RMK AO1 PK WND
20028/0946 SLP148 T00060000





000
SAUS45 KPUB 310858
MTRSPD
METAR KSPD 310856Z AUTO 20017G29KT 01/00 A2999 RMK AO1 PK WND
19029/0852 SLP161 60003 T00060000 58021





000
SAUS45 KPUB 310757
MTRSPD
METAR KSPD 310756Z AUTO 19018KT 01/00 A3001 RMK AO1 PK WND
19027/0731 SLP166 T00060000





000
SAUS45 KPUB 310658
MTRSPD
METAR KSPD 310656Z AUTO 19020G26KT 01/00 A3005 RMK AO1 PK WND
19026/0654 SLP177 P0003 T00060000 400560000





000
SAUS45 KPUB 310557
MTRSPD
METAR KSPD 310556Z AUTO 20016G23KT 01/01 A3006 RMK AO1 SLP177 P0002
60022 T00060006 10006 20000 58012





000
SAUS45 KPUB 310457
MTRSPD
METAR KSPD 310456Z AUTO 19014KT 01/01 A3009 RMK AO1 SLP186 P0005
T00060006





000
SAUS45 KPUB 310358
MTRSPD
METAR KSPD 310356Z AUTO 19019KT 01/00 A3010 RMK AO1 PK WND
18028/0301 SLP188 P0005 T00060000





000
SAUS45 KPUB 310258
MTRSPD
METAR KSPD 310256Z AUTO 18020G28KT 01/00 A3010 RMK AO1 PK WND
19028/0250 SLP193 P0002 60010 T00060000 55008





000
SAUS45 KPUB 310157
MTRSPD
METAR KSPD 310156Z AUTO 18020KT 01/00 A3010 RMK AO1 PK WND
18030/0107 SLP195 P0002 T00060000





000
SAUS45 KPUB 310058
MTRSPD
METAR KSPD 310056Z AUTO 18022G27KT 00/00 A3011 RMK AO1 PK WND
18027/0055 SLP199 P0006 T00000000





000
SAUS45 KPUB 302357
MTRSPD
METAR KSPD 302356Z AUTO 18018KT 00/00 A3013 RMK AO1 SLP209 P0010
60022 T00000000 10050 20000 56018





000
SAUS45 KPUB 302257
MTRSPD
METAR KSPD 302256Z AUTO 18013KT 00/00 A3015 RMK AO1 SLP215 P0008
T00000000





000
SAUS45 KPUB 302157
MTRSPD
METAR KSPD 302156Z AUTO 19016KT 01/01 A3018 RMK AO1 SLP223 P0001
T00060006





000
SAUS45 KPUB 302057
MTRSPD
METAR KSPD 302056Z AUTO 18013KT 01/01 A3019 RMK AO1 SLP229 P0002
60003 T00060006 58031





000
SAUS45 KPUB 301957
MTRSPD
METAR KSPD 301956Z AUTO 19014G22KT 01/M01 A3023 RMK AO1 SLP240 P0001
T00111006





000
SAUS45 KPUB 301858
MTRSPD
METAR KSPD 301856Z AUTO 20018G27KT 02/M01 A3028 RMK AO1 PK WND
20028/1841 SLP256 T00221011





000
SAUS45 KPUB 301657
MTRSPD
METAR KSPD 301656Z AUTO 20014KT 06/M03 A3031 RMK AO1 SLP262
T00561028





000
SAUS45 KPUB 301558
MTRSPD
METAR KSPD 301556Z AUTO 19014KT 04/M02 A3031 RMK AO1 SLP264
T00441022





000
SAUS45 KPUB 301458
MTRSPD
METAR KSPD 301456Z AUTO 19010KT 03/M02 A3032 RMK AO1 SLP268
T00331017 58006





000
SAUS45 KPUB 301357
MTRSPD
METAR KSPD 301356Z AUTO 19013KT 03/M02 A3033 RMK AO1 SLP270
T00281022





000
SAUS45 KPUB 301257
MTRSPD
METAR KSPD 301256Z AUTO 18012KT 02/M02 A3034 RMK AO1 SLP270
T00221022





000
SAUS45 KPUB 301157
MTRSPD
METAR KSPD 301156Z AUTO 18011KT 01/M02 A3034 RMK AO1 SLP272
T00111022 10022 20006 58016





000
SAUS45 KPUB 301057
MTRSPD
METAR KSPD 301056Z AUTO 18008KT 01/M02 A3036 RMK AO1 SLP274
T00111022





000
SAUS45 KPUB 300958
MTRSPD
METAR KSPD 300956Z AUTO 18008KT 02/M02 A3038 RMK AO1 SLP278
T00171022





000
SAUS45 KPUB 300857
MTRSPD
METAR KSPD 300856Z AUTO 18007KT 02/M02 A3040 RMK AO1 SLP285
T00171022 56017





000
SAUS45 KPUB 300757
MTRSPD
METAR KSPD 300756Z AUTO 19009KT 02/M03 A3041 RMK AO1 SLP289
T00171028





000
SAUS45 KPUB 300657
MTRSPD
METAR KSPD 300656Z AUTO 18008KT 01/M03 A3043 RMK AO1 SLP299
T00111033 401061006





000
SAUS45 KPUB 300558
MTRSPD
METAR KSPD 300556Z AUTO 18007KT 01/M04 A3045 RMK AO1 SLP306
T00111039 10061 21006 58004





000
SAUS45 KPUB 300457
MTRSPD
METAR KSPD 300456Z AUTO 17006KT 00/M05 A3047 RMK AO1 SLP317
T00001050





000
SAUS45 KPUB 300357
MTRSPD
METAR KSPD 300356Z AUTO 17005KT 00/M05 A3048 RMK AO1 SLP324
T00001050





000
SAUS45 KPUB 300257
MTRSPD
METAR KSPD 300256Z AUTO 13003KT 02/M05 A3047 RMK AO1 SLP320
T00221050 50003





000
SAUS45 KPUB 300158
MTRSPD
METAR KSPD 300156Z AUTO 14003KT 04/M06 A3047 RMK AO1 SLP318
T00391061





000
SAUS45 KPUB 300057
MTRSPD
METAR KSPD 300056Z AUTO 00000KT 05/M07 A3046 RMK AO1 SLP312
T00501067





000
SAUS45 KPUB 292357
MTRSPD
METAR KSPD 292356Z AUTO 04005KT 06/M06 A3046 RMK AO1 SLP307
T00611061 10106 20061 52001





000
SAUS45 KPUB 292257
MTRSPD
METAR KSPD 292256Z AUTO 02008KT 09/M07 A3046 RMK AO1 SLP303
T00891072





000
SAUS45 KPUB 292157
MTRSPD
METAR KSPD 292156Z AUTO 01009KT 09/M07 A3045 RMK AO1 SLP300
T00941072





000
SAUS45 KPUB 292058
MTRSPD
METAR KSPD 292056Z AUTO 35009KT 09/M07 A3045 RMK AO1 SLP300
T00941072 56017





000
SAUS45 KPUB 291957
MTRSPD
METAR KSPD 291956Z AUTO 36013G18KT 11/M06 A3046 RMK AO1 SLP303
T01061061





000
SAUS45 KPUB 291857
MTRSPD
METAR KSPD 291856Z AUTO 36014KT 09/M07 A3050 RMK AO1 SLP319
T00891067





000
SAUS45 KPUB 291757
MTRSPD
METAR KSPD 291756Z AUTO 36016KT 09/M04 A3051 RMK AO1 SLP325
T00891044 10089 20017 51009





000
SAUS45 KPUB 291658
MTRSPD
METAR KSPD 291656Z AUTO 33013G17KT 07/M03 A3051 RMK AO1 SLP325
T00671028





000
SAUS45 KPUB 291558
MTRSPD
METAR KSPD 291556Z AUTO 33007KT 04/M03 A3050 RMK AO1 SLP321
T00441028





000
SAUS45 KPUB 291457
MTRSPD
METAR KSPD 291456Z AUTO 34006KT 02/M03 A3048 RMK AO1 SLP312
T00221028 53024





000
SAUS45 KPUB 291357
MTRSPD
METAR KSPD 291356Z AUTO 35009KT 02/M03 A3045 RMK AO1 SLP307
T00221028





000
SAUS45 KPUB 291257
MTRSPD
METAR KSPD 291256Z AUTO 34008KT 02/M02 A3042 RMK AO1 SLP291
T00221022





000
SAUS45 KPUB 291157
MTRSPD
METAR KSPD 291156Z AUTO 34011KT 03/M02 A3040 RMK AO1 SLP275
T00331022 10039 20006 51024





000
SAUS45 KPUB 291057
MTRSPD
METAR KSPD 291056Z AUTO 34016KT 03/M01 A3037 RMK AO1 SLP258
T00331011





000
SAUS45 KPUB 290958
MTRSPD
METAR KSPD 290956Z AUTO 33015KT 03/M01 A3035 RMK AO1 SLP251
T00331006





000
SAUS45 KPUB 290858
MTRSPD
METAR KSPD 290856Z AUTO 33012KT 04/M01 A3032 RMK AO1 SLP238
T00391006 53016





000
SAUS45 KPUB 290757
MTRSPD
METAR KSPD 290756Z AUTO 32009KT 03/M01 A3028 RMK AO1 SLP228
T00281006





000
SAUS45 KPUB 290702 COR
MTRSPD
METAR KSPD 290656Z AUTO 31008KT 02/M01 A3027 RMK AO1 SLP222
T00171011 401941006





000
SAUS45 KPUB 290658 COR
MTRSPD
METAR KSPD 290656Z AUTO 31008KT 02/M01 A3027 RMK AO1 SLP222
T00171011 401941006





000
SAUS45 KPUB 290603 COR
MTRSPD
METAR KSPD 290556Z AUTO 33009KT 01/M02 A3026 RMK AO1 SLP222
T00061022 10122 21006 51028





000
SAUS45 KPUB 290558 COR
MTRSPD
METAR KSPD 290556Z AUTO 33009KT 01/M02 A3026 RMK AO1 SLP222
T00061022 10122 21006 51028





000
SAUS45 KPUB 290457
MTRSPD
METAR KSPD 290456Z AUTO 29006KT 03/M01 A3023 RMK AO1 SLP212
T00331011





000
SAUS45 KPUB 290357
MTRSPD
METAR KSPD 290356Z AUTO 35006KT 06/M01 A3021 RMK AO1 SLP201
T00561011





000
SAUS45 KPUB 290257
MTRSPD
METAR KSPD 290256Z AUTO 01014KT 09/M02 A3017 RMK AO1 SLP193
T00891017 53034





000
SAUS45 KPUB 290157
MTRSPD
METAR KSPD 290156Z AUTO 33004KT 06/M04 A3012 RMK AO1 SLP181
T00611039





000
SAUS45 KPUB 290057
MTRSPD
METAR KSPD 290056Z AUTO 36008KT 09/M04 A3009 RMK AO1 SLP163
T00891039





000
SAUS45 KPUB 290057
MTRSPD
METAR KSPD 290056Z AUTO 36008KT 09/M04 A3009 RMK AO1 SLP163
T00891039





    US Dept of Commerce
    National Oceanic and Atmospheric Administration
    National Weather Service
    1325 East West Highway
    Silver Spring, MD 20910
    Page Author: NWS Internet Services Team
Disclaimer
Information Quality
Credits
Glossary
Privacy Policy
Freedom of Information Act (FOIA)
About Us
Career Opportunities